Hendersonville, Tennessee
Current Conditions -  °F | °C
As of 9:53 PM on Tuesday 21 Oct 2014 (Local Time) from KBNA Reporting Station
Clear Clear  
Wind Chill: 54°   Ceiling: Unl
Heat Index: 54°   Visibility: 10mi
Dew Point: 43°   Wind: 8mph
Humidity: 66%   Direction: 10°N
Pressure: 30.13"   Gusts: NA
Location:  36.3°N, 86.62°W
Report Text: KBNA 220253Z 01007KT 10SM CLR 12/06 A3013 RMK AO2 SLP200 T01220061 51021
Loading
Personal Weather Stations






























Interactive Weather Map
Tropical Storm Tracking
New forecast layout! Learn more

10-Day Weather Forecast

Advertisements
Track Severe Weather on mobile